createdAt,value
2022-10-07T00:03:48.022Z,-108.00
2022-10-07T00:08:55.251Z,-108.00
2022-10-07T00:14:02.550Z,-108.00
2022-10-07T00:19:09.728Z,-108.00
2022-10-07T00:24:17.042Z,-108.00
2022-10-07T00:29:24.324Z,-108.00
2022-10-07T00:34:31.609Z,-108.00
2022-10-07T00:39:38.813Z,-108.00
2022-10-07T00:44:46.066Z,-108.00
2022-10-07T00:49:53.226Z,-108.00
2022-10-07T00:55:00.431Z,-108.00
2022-10-07T01:00:07.923Z,-108.00
2022-10-07T01:05:15.081Z,-108.00
2022-10-07T01:10:22.262Z,-108.00
2022-10-07T01:15:29.484Z,-108.00
2022-10-07T01:20:36.663Z,-108.00
2022-10-07T01:25:43.834Z,-108.00
2022-10-07T01:30:51.110Z,-108.00
2022-10-07T01:35:58.275Z,-108.00
2022-10-07T01:41:05.410Z,-108.00
2022-10-07T01:46:12.955Z,-144.00
2022-10-07T01:51:20.102Z,-108.00
2022-10-07T01:56:27.305Z,-108.00
2022-10-07T02:01:34.660Z,-108.00
2022-10-07T02:06:41.816Z,-108.00
2022-10-07T02:11:49.019Z,-108.00
2022-10-07T02:16:56.259Z,-108.00
2022-10-07T02:22:03.402Z,-108.00
2022-10-07T02:27:10.625Z,-108.00
2022-10-07T02:32:17.860Z,-108.00
2022-10-07T02:37:25.000Z,-108.00
2022-10-07T02:42:32.246Z,-108.00
2022-10-07T02:47:39.493Z,-108.00
2022-10-07T02:52:46.670Z,-108.00
2022-10-07T02:57:53.877Z,-72.00
2022-10-07T03:03:01.158Z,-108.00
2022-10-07T03:08:08.291Z,-108.00
2022-10-07T03:13:15.542Z,-108.00
2022-10-07T03:18:22.719Z,-108.00
2022-10-07T03:23:29.956Z,-108.00
2022-10-07T03:28:37.289Z,-108.00
2022-10-07T03:33:44.500Z,-108.00
2022-10-07T03:38:51.721Z,-108.00
2022-10-07T03:43:58.926Z,-108.00
2022-10-07T03:49:06.165Z,-108.00
2022-10-07T03:54:13.373Z,-108.00
2022-10-07T03:59:20.557Z,-108.00
2022-10-07T04:04:27.860Z,-144.00
2022-10-07T04:09:35.083Z,-108.00
2022-10-07T04:14:42.236Z,-108.00
2022-10-07T04:19:49.471Z,-108.00
2022-10-07T04:24:56.748Z,-108.00
2022-10-07T04:30:04.024Z,-108.00
2022-10-07T04:35:11.198Z,-144.00
2022-10-07T04:40:18.675Z,-108.00
2022-10-07T04:45:25.871Z,-108.00
2022-10-07T04:50:33.115Z,-108.00
2022-10-07T04:55:40.246Z,288.00
2022-10-07T05:00:47.644Z,324.00
2022-10-07T05:05:54.741Z,324.00
2022-10-07T05:11:01.914Z,324.00
2022-10-07T05:16:09.186Z,324.00
2022-10-07T05:21:16.355Z,324.00
2022-10-07T05:26:23.481Z,-36.00
2022-10-07T05:31:30.819Z,-72.00
2022-10-07T05:36:37.960Z,-36.00
2022-10-07T05:41:46.091Z,-72.00
2022-10-07T05:46:52.855Z,-36.00
2022-10-07T05:52:00.195Z,9612.00
2022-10-07T05:57:07.367Z,9756.00
2022-10-07T06:02:14.983Z,9972.00
2022-10-07T06:07:24.513Z,11268.00
2022-10-07T06:12:29.398Z,12204.00
2022-10-07T06:17:36.634Z,12096.00
2022-10-07T06:22:43.936Z,12924.00
2022-10-07T06:27:54.134Z,13788.00
2022-10-07T06:32:58.530Z,14616.00
2022-10-07T06:38:05.789Z,15408.00
2022-10-07T06:43:13.233Z,16740.00
2022-10-07T06:48:20.495Z,16956.00
2022-10-07T06:53:27.830Z,17568.00
2022-10-07T06:58:34.993Z,17280.00
2022-10-07T07:03:42.204Z,17352.00
2022-10-07T07:08:49.502Z,17856.00
2022-10-07T07:13:56.749Z,18252.00
2022-10-07T07:19:03.934Z,18612.00
2022-10-07T07:24:11.191Z,19224.00
2022-10-07T07:29:18.366Z,19476.00
2022-10-07T07:34:25.598Z,18216.00
2022-10-07T07:39:32.822Z,17100.00
2022-10-07T07:44:40.273Z,17136.00
2022-10-07T07:49:47.503Z,17604.00
2022-10-07T07:54:54.816Z,18972.00
2022-10-07T08:00:02.078Z,17460.00
2022-10-07T08:05:09.360Z,16596.00
2022-10-07T08:10:16.593Z,16344.00
2022-10-07T08:15:23.806Z,17640.00
2022-10-07T08:20:31.055Z,15984.00
2022-10-07T08:25:38.261Z,13464.00
2022-10-07T08:30:45.594Z,12780.00
2022-10-07T08:35:52.748Z,14220.00
2022-10-07T08:40:59.990Z,18828.00
2022-10-07T08:46:07.221Z,17316.00
2022-10-07T08:51:14.423Z,14328.00
2022-10-07T08:56:21.695Z,15408.00
2022-10-07T09:01:28.987Z,12600.00
2022-10-07T09:06:36.114Z,16452.00
2022-10-07T09:11:43.344Z,16524.00
2022-10-07T09:16:50.649Z,17424.00
2022-10-07T09:21:57.866Z,20952.00
2022-10-07T09:27:05.073Z,18000.00
2022-10-07T09:32:12.271Z,17532.00
2022-10-07T09:37:19.488Z,16668.00
2022-10-07T09:42:26.786Z,16992.00
2022-10-07T09:47:33.942Z,20232.00
2022-10-07T09:52:41.198Z,19368.00
2022-10-07T09:57:48.665Z,17100.00
2022-10-07T10:02:55.738Z,16092.00
2022-10-07T10:08:02.912Z,15912.00
2022-10-07T10:13:10.126Z,15480.00
2022-10-07T10:18:17.493Z,15336.00
2022-10-07T10:23:24.770Z,15336.00
2022-10-07T10:28:32.123Z,15408.00
2022-10-07T10:33:39.212Z,15336.00
2022-10-07T10:38:46.397Z,15372.00
2022-10-07T10:43:53.634Z,15336.00
2022-10-07T10:49:01.064Z,15480.00
2022-10-07T10:54:08.318Z,15444.00
2022-10-07T10:59:15.543Z,15516.00
2022-10-07T11:04:22.714Z,15300.00
2022-10-07T11:09:30.733Z,15372.00
2022-10-07T11:14:37.205Z,15264.00
2022-10-07T11:19:44.384Z,15228.00
2022-10-07T11:24:51.547Z,15480.00
2022-10-07T11:29:58.742Z,15732.00
2022-10-07T11:35:05.877Z,13464.00
2022-10-07T11:40:13.109Z,15228.00
2022-10-07T11:45:20.334Z,15192.00
2022-10-07T11:50:27.557Z,15120.00
2022-10-07T11:55:34.759Z,15012.00
2022-10-07T12:00:42.063Z,15120.00
2022-10-07T12:05:49.279Z,15120.00
2022-10-07T12:10:56.494Z,15120.00
2022-10-07T12:16:03.848Z,15120.00
2022-10-07T12:21:10.889Z,15156.00
2022-10-07T12:26:18.087Z,15156.00
2022-10-07T12:31:25.316Z,15336.00
2022-10-07T12:36:32.419Z,15372.00
2022-10-07T12:41:40.425Z,15588.00
2022-10-07T12:46:46.806Z,15660.00
2022-10-07T12:51:54.013Z,15588.00
2022-10-07T12:57:01.285Z,15588.00
2022-10-07T13:02:08.633Z,15732.00
2022-10-07T13:07:15.637Z,15228.00
2022-10-07T13:12:22.830Z,15696.00
2022-10-07T13:17:30.053Z,15012.00
2022-10-07T13:22:37.238Z,14868.00
2022-10-07T13:27:44.402Z,14724.00
2022-10-07T13:32:51.647Z,14616.00
2022-10-07T13:37:58.856Z,14544.00
2022-10-07T13:43:06.056Z,14364.00
2022-10-07T13:48:13.294Z,14256.00
2022-10-07T13:53:20.478Z,14112.00
2022-10-07T13:58:27.674Z,14004.00
2022-10-07T14:03:34.869Z,14004.00
2022-10-07T14:08:42.087Z,13752.00
2022-10-07T14:13:49.288Z,13716.00
2022-10-07T14:18:56.581Z,13500.00
2022-10-07T14:24:03.695Z,13284.00
2022-10-07T14:29:10.902Z,13140.00
2022-10-07T14:34:18.234Z,12996.00
2022-10-07T14:39:25.448Z,12780.00
2022-10-07T14:44:32.630Z,12564.00
2022-10-07T14:49:39.874Z,12420.00
2022-10-07T14:54:47.126Z,12204.00
2022-10-07T14:59:54.324Z,11952.00
2022-10-07T15:05:01.703Z,11088.00
2022-10-07T15:10:08.782Z,10728.00
2022-10-07T15:15:16.082Z,10440.00
2022-10-07T15:20:23.305Z,10116.00
2022-10-07T15:25:30.487Z,9972.00
2022-10-07T15:30:39.563Z,9612.00
2022-10-07T15:35:44.997Z,9396.00
2022-10-07T15:40:55.540Z,9144.00
2022-10-07T15:46:02.953Z,8820.00
2022-10-07T15:51:09.998Z,8496.00
2022-10-07T15:56:17.190Z,8064.00
2022-10-07T16:01:24.428Z,7704.00
2022-10-07T16:06:31.608Z,7092.00
2022-10-07T16:11:38.801Z,6516.00
2022-10-07T16:16:46.022Z,5580.00
2022-10-07T16:21:53.190Z,4860.00
2022-10-07T16:27:00.397Z,3744.00
2022-10-07T16:32:07.660Z,2844.00
2022-10-07T16:37:15.074Z,2052.00
2022-10-07T16:42:22.113Z,1368.00
2022-10-07T16:47:29.265Z,828.00
2022-10-07T16:52:36.520Z,468.00
2022-10-07T16:57:44.153Z,9612.00
2022-10-07T17:02:54.097Z,9432.00
2022-10-07T17:08:01.343Z,9432.00
2022-10-07T17:13:08.497Z,9108.00
2022-10-07T17:18:15.641Z,8676.00
2022-10-07T17:23:23.201Z,8820.00
2022-10-07T17:28:30.424Z,8712.00
2022-10-07T17:33:37.615Z,8676.00
2022-10-07T17:38:44.824Z,8748.00
2022-10-07T17:43:51.947Z,8856.00
2022-10-07T17:48:59.174Z,8784.00
2022-10-07T17:54:06.510Z,8604.00
2022-10-07T17:59:13.545Z,8604.00
2022-10-07T18:04:24.765Z,8640.00
2022-10-07T18:09:28.104Z,8820.00
2022-10-07T18:14:35.189Z,8856.00
2022-10-07T18:19:42.511Z,8676.00
2022-10-07T18:24:49.756Z,9216.00
2022-10-07T18:29:56.899Z,8712.00
2022-10-07T18:35:04.130Z,8820.00
2022-10-07T18:40:11.345Z,9720.00
2022-10-07T18:45:18.540Z,9756.00
2022-10-07T18:50:28.119Z,9900.00
2022-10-07T18:55:33.662Z,9792.00
2022-10-07T19:00:41.344Z,8820.00
2022-10-07T19:05:48.762Z,9684.00
2022-10-07T19:10:56.402Z,9576.00
2022-10-07T19:16:04.551Z,9648.00
2022-10-07T19:21:11.613Z,9468.00
2022-10-07T19:26:21.310Z,9648.00
2022-10-07T19:31:26.126Z,9720.00
2022-10-07T19:36:33.627Z,9612.00
2022-10-07T19:41:41.263Z,9576.00
2022-10-07T19:46:48.560Z,9648.00
2022-10-07T19:51:56.067Z,9612.00
2022-10-07T19:57:03.477Z,8856.00
2022-10-07T20:02:10.728Z,8748.00
2022-10-07T20:07:17.823Z,8784.00
2022-10-07T20:12:25.066Z,8892.00
2022-10-07T20:17:32.193Z,8856.00
2022-10-07T20:22:39.399Z,9108.00
2022-10-07T20:27:46.970Z,9216.00
2022-10-07T20:32:53.874Z,9288.00
2022-10-07T20:38:01.022Z,8964.00
2022-10-07T20:43:08.239Z,9216.00
2022-10-07T20:48:15.469Z,8676.00
2022-10-07T20:53:22.671Z,8496.00
2022-10-07T20:58:29.959Z,8460.00
2022-10-07T21:03:37.125Z,8748.00
2022-10-07T21:08:44.318Z,8424.00
2022-10-07T21:13:51.565Z,9468.00
2022-10-07T21:18:58.763Z,8820.00
2022-10-07T21:24:05.952Z,8568.00
2022-10-07T21:29:13.160Z,8460.00
2022-10-07T21:34:20.431Z,8676.00
2022-10-07T21:39:27.779Z,8820.00
2022-10-07T21:44:34.997Z,8856.00
2022-10-07T21:49:42.178Z,8856.00
2022-10-07T21:54:49.339Z,8784.00
2022-10-07T21:59:56.622Z,8712.00
2022-10-07T22:05:03.801Z,8748.00
2022-10-07T22:10:10.996Z,8964.00
2022-10-07T22:15:18.226Z,8460.00
2022-10-07T22:20:25.366Z,8604.00
2022-10-07T22:25:32.555Z,8964.00
2022-10-07T22:30:39.854Z,8604.00
2022-10-07T22:35:46.989Z,8928.00
2022-10-07T22:40:54.226Z,8964.00
2022-10-07T22:46:01.529Z,-144.00
2022-10-07T22:51:08.645Z,-108.00
2022-10-07T22:56:15.902Z,-108.00
2022-10-07T23:01:23.103Z,-108.00
2022-10-07T23:06:30.384Z,-108.00
2022-10-07T23:11:37.589Z,-108.00
2022-10-07T23:16:44.841Z,-108.00
2022-10-07T23:21:51.974Z,-108.00
2022-10-07T23:26:59.139Z,-108.00
2022-10-07T23:32:06.399Z,-108.00
2022-10-07T23:37:14.433Z,-144.00
2022-10-07T23:42:21.603Z,-108.00
2022-10-07T23:47:28.834Z,-108.00
2022-10-07T23:52:36.041Z,-108.00
2022-10-07T23:57:43.225Z,-144.00
